createdAt,value
2023-04-30T00:02:00.330Z,10.00
2023-04-30T00:04:26.924Z,9.73
2023-04-30T00:06:53.775Z,10.65
2023-04-30T00:09:20.396Z,9.85
2023-04-30T00:11:47.134Z,10.05
2023-04-30T00:14:13.588Z,8.70
2023-04-30T00:16:40.101Z,9.68
2023-04-30T00:19:06.680Z,9.55
2023-04-30T00:21:33.544Z,11.50
2023-04-30T00:24:03.861Z,10.77
2023-04-30T00:26:30.521Z,9.53
2023-04-30T00:28:56.974Z,9.20
2023-04-30T00:31:23.491Z,9.88
2023-04-30T00:33:50.090Z,10.38
2023-04-30T00:36:16.541Z,9.20
2023-04-30T00:38:42.940Z,9.73
2023-04-30T00:41:10.038Z,10.50
2023-04-30T00:43:36.470Z,9.70
2023-04-30T00:46:05.312Z,9.60
2023-04-30T00:48:31.882Z,9.90
2023-04-30T00:50:58.414Z,9.83
2023-04-30T00:53:25.097Z,11.38
2023-04-30T00:55:51.880Z,10.65
2023-04-30T00:58:18.538Z,10.57
2023-04-30T01:00:47.270Z,10.75
2023-04-30T01:03:14.377Z,10.50
2023-04-30T01:05:40.823Z,10.35
2023-04-30T01:08:10.107Z,11.38
2023-04-30T01:10:44.723Z,10.48
2023-04-30T01:13:21.504Z,11.77
2023-04-30T01:15:57.223Z,10.97
2023-04-30T01:18:31.607Z,10.80
2023-04-30T01:21:07.926Z,11.40
2023-04-30T01:24:11.685Z,10.40
2023-04-30T01:26:50.157Z,10.27
2023-04-30T01:29:18.996Z,12.13
2023-04-30T01:31:45.526Z,11.00
2023-04-30T01:34:12.202Z,9.93
2023-04-30T01:37:01.776Z,10.02
2023-04-30T01:39:57.334Z,9.70
2023-04-30T01:42:48.060Z,11.20
2023-04-30T01:45:43.583Z,9.88
2023-04-30T01:48:51.314Z,10.27
2023-04-30T01:51:30.756Z,10.32
2023-04-30T01:53:59.308Z,9.60
2023-04-30T01:56:35.811Z,11.67
2023-04-30T01:59:04.008Z,12.35
2023-04-30T02:01:32.958Z,12.20
2023-04-30T02:03:59.918Z,13.45
2023-04-30T02:06:30.333Z,12.82
2023-04-30T02:09:03.111Z,12.27
2023-04-30T02:11:30.014Z,12.80
2023-04-30T02:13:56.578Z,12.55
2023-04-30T02:16:23.895Z,14.27
2023-04-30T02:18:50.889Z,12.13
2023-04-30T02:21:18.053Z,13.67
2023-04-30T02:23:44.612Z,13.85
2023-04-30T02:26:11.011Z,13.57
2023-04-30T02:28:37.619Z,14.57
2023-04-30T02:31:04.132Z,15.45
2023-04-30T02:33:30.613Z,14.47
2023-04-30T02:36:00.257Z,15.32
2023-04-30T02:38:26.879Z,13.95
2023-04-30T02:40:53.393Z,14.45
2023-04-30T02:43:19.892Z,13.98
2023-04-30T02:45:46.483Z,12.97
2023-04-30T02:48:13.593Z,15.23
2023-04-30T02:50:40.093Z,14.27
2023-04-30T02:53:06.690Z,13.15
2023-04-30T02:55:33.247Z,12.82
2023-04-30T02:57:59.792Z,13.10
2023-04-30T03:00:26.440Z,17.50
2023-04-30T03:02:53.329Z,17.65
2023-04-30T03:05:19.820Z,15.80
2023-04-30T03:07:46.213Z,15.23
2023-04-30T03:10:12.639Z,14.13
2023-04-30T03:12:39.156Z,12.55
2023-04-30T03:15:06.523Z,12.98
2023-04-30T03:17:33.000Z,13.55
2023-04-30T03:19:59.565Z,13.77
2023-04-30T03:22:26.683Z,14.43
2023-04-30T03:24:53.326Z,15.40
2023-04-30T03:27:19.738Z,13.32
2023-04-30T03:29:46.120Z,13.85
2023-04-30T03:32:12.532Z,16.30
2023-04-30T03:34:39.022Z,14.40
2023-04-30T03:37:05.539Z,13.45
2023-04-30T03:39:32.043Z,13.43
2023-04-30T03:41:58.497Z,13.50
2023-04-30T03:44:24.932Z,15.13
2023-04-30T03:46:51.350Z,14.73
2023-04-30T03:49:17.857Z,13.98
2023-04-30T03:51:44.333Z,14.73
2023-04-30T03:54:10.813Z,13.27
2023-04-30T03:56:37.772Z,13.45
2023-04-30T03:59:05.450Z,13.57
2023-04-30T04:01:32.015Z,15.50
2023-04-30T04:03:58.966Z,14.80
2023-04-30T04:06:25.443Z,15.73
2023-04-30T04:08:51.933Z,15.50
2023-04-30T04:11:18.392Z,13.83
2023-04-30T04:13:44.962Z,15.65
2023-04-30T04:16:11.615Z,15.18
2023-04-30T04:18:38.274Z,15.60
2023-04-30T04:21:04.788Z,15.48
2023-04-30T04:23:31.173Z,17.73
2023-04-30T04:25:57.634Z,19.25
2023-04-30T04:28:24.281Z,19.15
2023-04-30T04:30:51.229Z,20.63
2023-04-30T04:33:17.692Z,18.30
2023-04-30T04:35:44.150Z,20.33
2023-04-30T04:38:10.770Z,21.42
2023-04-30T04:40:38.303Z,21.20
2023-04-30T04:43:04.844Z,20.67
2023-04-30T04:45:31.926Z,19.98
2023-04-30T04:47:58.642Z,21.07
2023-04-30T04:50:25.108Z,22.50
2023-04-30T04:52:51.639Z,21.08
2023-04-30T04:55:18.917Z,21.67
2023-04-30T04:57:45.487Z,21.75
2023-04-30T05:00:13.079Z,20.23
2023-04-30T05:02:39.612Z,20.02
2023-04-30T05:05:06.866Z,20.38
2023-04-30T05:07:34.904Z,17.50
2023-04-30T05:10:01.346Z,17.88
2023-04-30T05:12:28.032Z,15.57
2023-04-30T05:14:54.538Z,15.32
2023-04-30T05:17:21.317Z,16.45
2023-04-30T05:19:50.507Z,17.77
2023-04-30T05:22:17.387Z,16.48
2023-04-30T05:24:43.954Z,18.13
2023-04-30T05:27:10.514Z,16.90
2023-04-30T05:29:37.013Z,15.10
2023-04-30T05:32:03.664Z,15.05
2023-04-30T05:34:30.239Z,14.35
2023-04-30T05:36:56.789Z,14.60
2023-04-30T05:39:23.301Z,14.88
2023-04-30T05:41:51.089Z,15.07
2023-04-30T05:44:18.669Z,14.98
2023-04-30T05:46:45.165Z,14.30
2023-04-30T05:49:11.669Z,18.93
2023-04-30T05:51:38.068Z,13.60
2023-04-30T05:54:04.499Z,14.52
2023-04-30T05:56:31.153Z,28.52
2023-04-30T05:58:57.604Z,13.40
2023-04-30T06:01:25.392Z,13.20
2023-04-30T06:03:52.353Z,12.77
2023-04-30T06:06:18.813Z,12.48
2023-04-30T06:08:45.733Z,12.50
2023-04-30T06:11:13.228Z,12.75
2023-04-30T06:13:39.870Z,12.53
2023-04-30T06:16:08.336Z,12.00
2023-04-30T06:18:35.019Z,11.90
2023-04-30T06:21:01.484Z,10.63
2023-04-30T06:23:28.026Z,11.13
2023-04-30T06:25:54.402Z,10.80
2023-04-30T06:28:21.257Z,10.45
2023-04-30T06:30:47.960Z,10.32
2023-04-30T06:33:14.441Z,9.90
2023-04-30T06:35:40.863Z,12.13
2023-04-30T06:38:07.364Z,9.13
2023-04-30T06:40:34.322Z,8.55
2023-04-30T06:43:00.998Z,8.82
2023-04-30T06:45:29.089Z,8.73
2023-04-30T06:47:56.133Z,8.35
2023-04-30T06:50:22.855Z,8.00
2023-04-30T06:52:49.568Z,8.00
2023-04-30T06:55:16.032Z,8.05
2023-04-30T06:57:42.452Z,7.80
2023-04-30T07:00:09.289Z,8.00
2023-04-30T07:02:36.321Z,7.33
2023-04-30T07:05:03.022Z,7.90
2023-04-30T07:07:29.494Z,7.57
2023-04-30T07:09:56.705Z,7.65
2023-04-30T07:12:23.851Z,20.75
2023-04-30T07:14:50.314Z,8.20
2023-04-30T07:17:16.997Z,7.50
2023-04-30T07:19:43.663Z,6.80
2023-04-30T07:22:10.322Z,7.55
2023-04-30T07:24:36.775Z,7.72
2023-04-30T07:27:03.998Z,7.33
2023-04-30T07:29:30.666Z,6.88
2023-04-30T07:31:57.207Z,7.28
2023-04-30T07:34:24.418Z,6.38
2023-04-30T07:36:51.123Z,7.60
2023-04-30T07:39:18.070Z,7.40
2023-04-30T07:41:44.906Z,7.72
2023-04-30T07:44:12.352Z,7.15
2023-04-30T07:46:38.986Z,7.50
2023-04-30T07:49:05.526Z,7.28
2023-04-30T07:51:32.935Z,9.10
2023-04-30T07:54:00.872Z,7.82
2023-04-30T07:56:27.612Z,6.82
2023-04-30T07:58:54.118Z,6.50
2023-04-30T08:01:20.698Z,8.52
2023-04-30T08:03:47.287Z,7.23
2023-04-30T08:06:13.956Z,7.32
2023-04-30T08:08:40.595Z,6.72
2023-04-30T08:11:07.058Z,6.25
2023-04-30T08:13:33.649Z,5.28
2023-04-30T08:16:00.370Z,5.97
2023-04-30T08:18:26.896Z,5.60
2023-04-30T08:20:53.446Z,5.40
2023-04-30T08:23:20.112Z,5.90
2023-04-30T08:25:46.558Z,5.80
2023-04-30T08:28:13.104Z,6.10
2023-04-30T08:30:39.888Z,5.80
2023-04-30T08:33:06.500Z,7.88
2023-04-30T08:35:32.974Z,7.68
2023-04-30T08:37:59.374Z,5.00
2023-04-30T08:40:43.847Z,5.20
2023-04-30T08:43:15.449Z,5.20
2023-04-30T08:45:42.598Z,5.10
2023-04-30T08:48:15.227Z,5.28
2023-04-30T08:50:42.013Z,5.70
2023-04-30T08:53:10.834Z,6.80
2023-04-30T08:55:40.061Z,5.55
2023-04-30T08:58:08.383Z,6.72
2023-04-30T09:00:37.809Z,5.97
2023-04-30T09:03:05.116Z,7.22
2023-04-30T09:05:31.624Z,6.67
2023-04-30T09:08:03.700Z,6.18
2023-04-30T09:10:34.754Z,5.90
2023-04-30T09:13:11.959Z,5.57
2023-04-30T09:15:41.615Z,5.82
2023-04-30T09:18:17.487Z,5.27
2023-04-30T09:20:57.743Z,5.35
2023-04-30T09:23:25.039Z,5.53
2023-04-30T09:25:51.588Z,6.85
2023-04-30T09:28:19.271Z,9.18
2023-04-30T09:30:45.678Z,10.70
2023-04-30T09:33:12.608Z,8.80
2023-04-30T09:35:41.601Z,4.88
2023-04-30T09:38:08.496Z,7.80
2023-04-30T09:40:40.371Z,3.33
2023-04-30T09:43:07.635Z,2.93
2023-04-30T09:45:47.311Z,2.80
2023-04-30T09:48:28.209Z,8.23
2023-04-30T09:50:54.881Z,4.20
2023-04-30T09:53:21.581Z,5.20
2023-04-30T09:55:51.263Z,9.20
2023-04-30T09:58:19.367Z,6.32
2023-04-30T10:00:48.294Z,4.32
2023-04-30T10:03:16.681Z,3.50
2023-04-30T10:05:48.963Z,3.20
2023-04-30T10:08:24.832Z,3.87
2023-04-30T10:10:58.293Z,4.85
2023-04-30T10:13:28.946Z,7.70
2023-04-30T10:15:58.994Z,3.70
2023-04-30T10:18:31.422Z,3.95
2023-04-30T10:21:01.409Z,5.50
2023-04-30T10:23:27.905Z,2.80
2023-04-30T10:25:56.505Z,2.85
2023-04-30T10:28:23.820Z,2.90
2023-04-30T10:30:54.977Z,2.63
2023-04-30T10:33:26.079Z,2.40
2023-04-30T10:36:00.315Z,4.32
2023-04-30T10:38:30.907Z,2.53
2023-04-30T10:40:58.914Z,2.40
2023-04-30T10:43:26.375Z,2.50
2023-04-30T10:45:53.176Z,2.53
2023-04-30T10:48:25.462Z,2.40
2023-04-30T10:50:53.626Z,2.20
2023-04-30T10:53:21.026Z,4.63
2023-04-30T10:55:52.069Z,5.60
2023-04-30T10:58:31.490Z,2.30
2023-04-30T11:01:11.516Z,3.88
2023-04-30T11:03:40.354Z,2.33
2023-04-30T11:06:20.191Z,2.00
2023-04-30T11:08:47.254Z,2.30
2023-04-30T11:11:21.569Z,1.80
2023-04-30T11:13:57.788Z,1.95
2023-04-30T11:16:31.303Z,2.55
2023-04-30T11:19:08.584Z,2.00
2023-04-30T11:22:03.007Z,1.70
2023-04-30T11:24:52.548Z,1.60
2023-04-30T11:27:29.383Z,2.30
2023-04-30T11:29:59.241Z,1.85
2023-04-30T11:32:31.986Z,1.95
2023-04-30T11:34:59.983Z,3.30
2023-04-30T11:37:35.166Z,1.73
2023-04-30T11:40:11.008Z,5.30
2023-04-30T11:42:44.894Z,2.00
2023-04-30T11:45:17.811Z,1.70
2023-04-30T11:47:49.467Z,1.40
2023-04-30T11:50:18.270Z,1.80
2023-04-30T11:52:52.803Z,1.60
2023-04-30T11:55:21.397Z,1.60
2023-04-30T11:57:50.610Z,2.25
2023-04-30T12:00:22.477Z,8.13
2023-04-30T12:02:50.191Z,1.70
2023-04-30T12:05:21.554Z,2.15
2023-04-30T12:07:56.290Z,2.10
2023-04-30T12:10:24.831Z,1.92
2023-04-30T12:12:53.235Z,2.15
2023-04-30T12:15:27.901Z,2.00
2023-04-30T12:17:59.240Z,1.98
2023-04-30T12:20:28.932Z,1.50
2023-04-30T12:22:56.166Z,2.20
2023-04-30T12:25:24.842Z,1.90
2023-04-30T12:27:53.244Z,1.63
2023-04-30T12:30:24.919Z,1.70
2023-04-30T12:32:53.312Z,3.00
2023-04-30T12:35:21.661Z,16.80
2023-04-30T12:37:53.111Z,8.70
2023-04-30T12:40:21.595Z,1.90
2023-04-30T12:42:49.220Z,2.83
2023-04-30T12:45:54.615Z,4.40
2023-04-30T12:48:24.790Z,1.40
2023-04-30T12:51:02.457Z,1.88
2023-04-30T12:53:29.652Z,4.63
2023-04-30T12:56:16.685Z,1.50
2023-04-30T12:58:50.636Z,1.70
2023-04-30T13:01:20.380Z,1.70
2023-04-30T13:03:47.483Z,1.70
2023-04-30T13:06:14.404Z,5.93
2023-04-30T13:08:53.922Z,1.45
2023-04-30T13:11:26.117Z,1.80
2023-04-30T13:13:55.141Z,1.60
2023-04-30T13:16:21.701Z,1.60
2023-04-30T13:18:48.292Z,1.30
2023-04-30T13:21:14.725Z,1.42
2023-04-30T13:23:49.062Z,1.52
2023-04-30T13:26:19.056Z,1.58
2023-04-30T13:28:45.585Z,1.38
2023-04-30T13:31:12.267Z,1.40
2023-04-30T13:33:38.858Z,1.58
2023-04-30T13:36:05.574Z,1.38
2023-04-30T13:38:32.295Z,1.20
2023-04-30T13:40:58.896Z,5.35
2023-04-30T13:43:25.362Z,1.30
2023-04-30T13:45:51.868Z,1.67
2023-04-30T13:48:18.563Z,1.40
2023-04-30T13:50:45.014Z,1.02
2023-04-30T13:53:11.573Z,1.30
2023-04-30T13:55:38.048Z,1.40
2023-04-30T13:58:04.612Z,0.90
2023-04-30T14:00:31.029Z,1.20
2023-04-30T14:02:58.012Z,1.60
2023-04-30T14:05:24.605Z,1.05
2023-04-30T14:07:51.161Z,1.40
2023-04-30T14:10:17.785Z,1.70
2023-04-30T14:12:44.481Z,1.20
2023-04-30T14:15:11.133Z,1.80
2023-04-30T14:17:37.741Z,2.00
2023-04-30T14:20:04.969Z,1.50
2023-04-30T14:22:34.540Z,1.45
2023-04-30T14:25:01.195Z,2.05
2023-04-30T14:27:27.615Z,1.30
2023-04-30T14:29:54.347Z,1.45
2023-04-30T14:32:21.564Z,1.40
2023-04-30T14:34:48.091Z,1.25
2023-04-30T14:37:15.622Z,0.90
2023-04-30T14:39:42.766Z,1.50
2023-04-30T14:42:09.606Z,1.33
2023-04-30T14:44:37.885Z,1.20
2023-04-30T14:47:04.735Z,5.22
2023-04-30T14:49:31.558Z,1.50
2023-04-30T14:51:58.252Z,1.50
2023-04-30T14:54:24.814Z,1.58
2023-04-30T14:56:52.020Z,1.70
2023-04-30T14:59:18.515Z,1.25
2023-04-30T15:01:45.024Z,1.42
2023-04-30T15:04:11.566Z,1.50
2023-04-30T15:06:38.217Z,2.67
2023-04-30T15:09:04.761Z,1.73
2023-04-30T15:11:31.203Z,1.10
2023-04-30T15:13:57.778Z,1.33
2023-04-30T15:16:24.500Z,1.30
2023-04-30T15:18:51.147Z,1.48
2023-04-30T15:21:17.641Z,1.50
2023-04-30T15:23:44.278Z,1.40
2023-04-30T15:26:11.064Z,1.30
2023-04-30T15:28:37.514Z,1.27
2023-04-30T15:31:06.401Z,1.55
2023-04-30T15:33:34.491Z,1.90
2023-04-30T15:36:01.433Z,1.67
2023-04-30T15:38:28.003Z,1.35
2023-04-30T15:40:54.460Z,1.27
2023-04-30T15:43:21.367Z,1.50
2023-04-30T15:45:48.466Z,1.70
2023-04-30T15:48:15.283Z,2.20
2023-04-30T15:50:41.977Z,2.47
2023-04-30T15:53:09.159Z,1.70
2023-04-30T15:55:36.705Z,1.50
2023-04-30T15:58:04.283Z,1.40
2023-04-30T16:00:30.760Z,1.25
2023-04-30T16:02:57.283Z,1.20
2023-04-30T16:05:23.940Z,1.50
2023-04-30T16:07:52.362Z,1.20
2023-04-30T16:10:20.002Z,1.67
2023-04-30T16:12:46.551Z,1.60
2023-04-30T16:15:13.119Z,2.40
2023-04-30T16:17:39.676Z,1.83
2023-04-30T16:20:07.009Z,1.70
2023-04-30T16:22:34.364Z,1.67
2023-04-30T16:25:01.046Z,1.45
2023-04-30T16:27:27.489Z,1.55
2023-04-30T16:29:54.153Z,1.38
2023-04-30T16:32:21.043Z,1.40
2023-04-30T16:34:47.566Z,1.40
2023-04-30T16:37:15.434Z,1.45
2023-04-30T16:39:41.885Z,1.60
2023-04-30T16:42:11.522Z,1.65
2023-04-30T16:44:40.957Z,1.80
2023-04-30T16:47:09.448Z,1.40
2023-04-30T16:49:36.010Z,1.95
2023-04-30T16:52:02.720Z,1.58
2023-04-30T16:54:29.473Z,3.92
2023-04-30T16:56:56.047Z,3.13
2023-04-30T16:59:24.598Z,1.90
2023-04-30T17:01:51.175Z,1.95
2023-04-30T17:04:18.026Z,1.92
2023-04-30T17:06:44.739Z,1.58
2023-04-30T17:09:11.523Z,2.80
2023-04-30T17:11:38.046Z,2.80
2023-04-30T17:14:04.632Z,2.83
2023-04-30T17:16:31.126Z,2.58
2023-04-30T17:18:57.627Z,2.42
2023-04-30T17:21:24.083Z,2.70
2023-04-30T17:23:50.564Z,3.53
2023-04-30T17:26:18.268Z,3.30
2023-04-30T17:28:44.750Z,2.50
2023-04-30T17:31:11.343Z,1.80
2023-04-30T17:33:37.875Z,1.88
2023-04-30T17:36:04.543Z,1.70
2023-04-30T17:38:31.072Z,2.00
2023-04-30T17:40:57.736Z,2.13
2023-04-30T17:43:24.642Z,2.53
2023-04-30T17:45:53.137Z,2.70
2023-04-30T17:48:19.903Z,4.63
2023-04-30T17:50:46.782Z,2.60
2023-04-30T17:53:13.567Z,2.20
2023-04-30T17:55:40.266Z,2.47
2023-04-30T17:58:10.084Z,3.53
2023-04-30T18:00:39.335Z,4.97
2023-04-30T18:03:06.630Z,13.13
2023-04-30T18:05:35.677Z,2.63
2023-04-30T18:08:02.494Z,2.00
2023-04-30T18:10:32.243Z,5.80
2023-04-30T18:12:59.579Z,4.27
2023-04-30T18:15:27.183Z,3.53
2023-04-30T18:17:53.863Z,3.17
2023-04-30T18:20:21.875Z,2.38
2023-04-30T18:22:51.025Z,2.17
2023-04-30T18:25:18.516Z,2.30
2023-04-30T18:27:45.095Z,2.22
2023-04-30T18:30:12.756Z,2.83
2023-04-30T18:32:39.544Z,2.58
2023-04-30T18:35:06.534Z,2.72
2023-04-30T18:37:33.812Z,2.47
2023-04-30T18:40:04.808Z,2.40
2023-04-30T18:42:31.719Z,2.35
2023-04-30T18:44:58.286Z,2.20
2023-04-30T18:47:24.922Z,2.40
2023-04-30T18:49:51.535Z,2.23
2023-04-30T18:52:18.978Z,2.40
2023-04-30T18:54:45.537Z,2.33
2023-04-30T18:57:14.899Z,2.33
2023-04-30T18:59:41.517Z,2.33
2023-04-30T19:02:11.526Z,2.20
2023-04-30T19:04:40.223Z,2.50
2023-04-30T19:07:10.034Z,2.50
2023-04-30T19:09:36.955Z,2.33
2023-04-30T19:12:03.777Z,2.50
2023-04-30T19:14:30.427Z,2.73
2023-04-30T19:16:57.310Z,2.60
2023-04-30T19:19:23.869Z,2.70
2023-04-30T19:21:50.609Z,2.22
2023-04-30T19:24:21.168Z,2.40
2023-04-30T19:26:47.625Z,2.47
2023-04-30T19:29:14.076Z,5.65
2023-04-30T19:31:40.725Z,2.90
2023-04-30T19:34:07.236Z,2.42
2023-04-30T19:36:36.005Z,2.47
2023-04-30T19:39:05.898Z,22.80
2023-04-30T19:41:32.361Z,4.30
2023-04-30T19:43:58.803Z,3.50
2023-04-30T19:46:28.511Z,2.80
2023-04-30T19:48:55.372Z,2.50
2023-04-30T19:51:22.106Z,4.23
2023-04-30T19:53:48.689Z,2.70
2023-04-30T19:56:15.289Z,2.78
2023-04-30T19:58:41.816Z,3.88
2023-04-30T20:01:08.428Z,6.88
2023-04-30T20:03:35.748Z,3.40
2023-04-30T20:06:08.401Z,3.55
2023-04-30T20:08:35.161Z,4.10
2023-04-30T20:11:03.268Z,3.50
2023-04-30T20:13:30.395Z,3.17
2023-04-30T20:15:58.217Z,3.30
2023-04-30T20:18:24.955Z,6.97
2023-04-30T20:20:52.241Z,4.80
2023-04-30T20:23:20.354Z,3.78
2023-04-30T20:25:46.909Z,4.50
2023-04-30T20:28:18.235Z,4.57
2023-04-30T20:30:45.011Z,7.05
2023-04-30T20:33:15.174Z,4.10
2023-04-30T20:35:44.026Z,4.03
2023-04-30T20:38:16.302Z,3.38
2023-04-30T20:40:47.405Z,5.47
2023-04-30T20:43:14.773Z,4.05
2023-04-30T20:45:44.505Z,3.65
2023-04-30T20:48:11.123Z,3.95
2023-04-30T20:50:37.750Z,6.45
2023-04-30T20:53:08.337Z,12.70
2023-04-30T20:55:36.201Z,5.85
2023-04-30T20:58:03.661Z,6.35
2023-04-30T21:00:33.057Z,5.43
2023-04-30T21:02:59.633Z,4.75
2023-04-30T21:05:28.428Z,3.83
2023-04-30T21:07:54.966Z,3.22
2023-04-30T21:10:21.620Z,3.70
2023-04-30T21:12:48.239Z,3.65
2023-04-30T21:15:14.793Z,3.70
2023-04-30T21:17:41.362Z,4.10
2023-04-30T21:20:08.894Z,4.32
2023-04-30T21:22:35.374Z,4.78
2023-04-30T21:25:01.829Z,4.20
2023-04-30T21:27:28.538Z,4.18
2023-04-30T21:29:55.337Z,4.23
2023-04-30T21:32:22.065Z,3.97
2023-04-30T21:34:48.508Z,4.00
2023-04-30T21:37:17.162Z,4.35
2023-04-30T21:39:43.990Z,4.53
2023-04-30T21:42:10.520Z,3.87
2023-04-30T21:44:37.005Z,4.20
2023-04-30T21:47:03.714Z,7.60
2023-04-30T21:49:31.185Z,4.00
2023-04-30T21:51:57.942Z,3.80
2023-04-30T21:54:24.373Z,4.10
2023-04-30T21:56:50.803Z,4.22
2023-04-30T21:59:17.288Z,4.00
2023-04-30T22:01:43.769Z,3.88
2023-04-30T22:04:10.429Z,3.60
2023-04-30T22:06:37.365Z,4.20
2023-04-30T22:09:04.594Z,3.83
2023-04-30T22:11:33.481Z,4.22
2023-04-30T22:14:00.490Z,4.03
2023-04-30T22:16:27.021Z,3.70
2023-04-30T22:18:58.820Z,4.23
2023-04-30T22:21:25.808Z,4.30
2023-04-30T22:23:52.718Z,4.18
2023-04-30T22:26:19.350Z,4.00
2023-04-30T22:28:45.727Z,4.15
2023-04-30T22:31:12.167Z,4.53
2023-04-30T22:33:38.717Z,4.13
2023-04-30T22:36:06.672Z,3.92
2023-04-30T22:38:33.819Z,4.30
2023-04-30T22:41:04.615Z,4.32
2023-04-30T22:43:31.276Z,3.93
2023-04-30T22:45:59.206Z,6.72
2023-04-30T22:48:27.661Z,3.95
2023-04-30T22:50:55.322Z,4.40
2023-04-30T22:53:22.252Z,4.15
2023-04-30T22:55:51.482Z,4.50
2023-04-30T22:58:18.440Z,4.30
2023-04-30T23:00:45.332Z,4.18
2023-04-30T23:03:12.201Z,4.35
2023-04-30T23:05:39.819Z,4.15
2023-04-30T23:08:11.621Z,4.03
2023-04-30T23:10:38.528Z,3.70
2023-04-30T23:13:05.100Z,4.10
2023-04-30T23:15:31.545Z,3.88
2023-04-30T23:18:00.254Z,3.88
2023-04-30T23:20:27.383Z,3.93
2023-04-30T23:22:54.007Z,3.80
2023-04-30T23:25:21.288Z,4.30
2023-04-30T23:27:48.182Z,3.33
2023-04-30T23:30:14.676Z,3.70
2023-04-30T23:32:41.592Z,3.60
2023-04-30T23:35:09.241Z,3.60
2023-04-30T23:37:36.050Z,3.15
2023-04-30T23:40:04.895Z,3.97
2023-04-30T23:42:31.309Z,4.13
2023-04-30T23:44:58.361Z,3.77
2023-04-30T23:47:24.844Z,3.70
2023-04-30T23:49:51.360Z,3.90
2023-04-30T23:52:17.984Z,3.72
2023-04-30T23:54:44.452Z,4.10
2023-04-30T23:57:11.297Z,3.80
2023-04-30T23:59:37.950Z,3.60
